createdAt,value
2022-11-27T00:01:43.721Z,20.70
2022-11-27T00:04:15.229Z,21.00
2022-11-27T00:06:46.182Z,21.40
2022-11-27T00:09:16.394Z,20.40
2022-11-27T00:11:46.779Z,20.10
2022-11-27T00:14:16.984Z,20.40
2022-11-27T00:16:45.371Z,19.30
2022-11-27T00:19:14.224Z,18.90
2022-11-27T00:21:42.541Z,18.60
2022-11-27T00:24:12.296Z,19.50
2022-11-27T00:26:40.560Z,18.90
2022-11-27T00:29:10.048Z,21.10
2022-11-27T00:31:38.531Z,19.90
2022-11-27T00:34:09.583Z,19.30
2022-11-27T00:36:47.857Z,19.20
2022-11-27T00:39:17.850Z,27.10
2022-11-27T00:41:47.097Z,35.90
2022-11-27T00:44:22.127Z,33.30
2022-11-27T00:46:52.758Z,24.30
2022-11-27T00:49:21.035Z,22.70
2022-11-27T00:51:49.347Z,20.60
2022-11-27T00:54:18.578Z,18.30
2022-11-27T00:56:52.879Z,18.30
2022-11-27T00:59:25.914Z,18.00
2022-11-27T01:01:57.762Z,19.30
2022-11-27T01:04:26.369Z,19.50
2022-11-27T01:07:00.754Z,19.70
2022-11-27T01:09:31.587Z,18.80
2022-11-27T01:11:59.912Z,19.60
2022-11-27T01:14:28.656Z,19.20
2022-11-27T01:16:56.951Z,17.10
2022-11-27T01:19:29.209Z,20.20
2022-11-27T01:21:58.650Z,17.40
2022-11-27T01:24:27.127Z,19.20
2022-11-27T01:26:55.308Z,18.50
2022-11-27T01:29:26.701Z,17.60
2022-11-27T01:31:54.995Z,18.00
2022-11-27T01:34:26.189Z,17.00
2022-11-27T01:36:54.497Z,20.70
2022-11-27T01:39:31.444Z,19.50
2022-11-27T01:42:06.320Z,21.00
2022-11-27T01:44:39.667Z,20.10
2022-11-27T01:47:29.796Z,21.70
2022-11-27T01:50:37.138Z,23.60
2022-11-27T01:53:26.452Z,20.80
2022-11-27T01:56:08.488Z,20.30
2022-11-27T01:58:37.439Z,19.70
2022-11-27T02:01:06.119Z,19.00
2022-11-27T02:03:40.295Z,18.10
2022-11-27T02:06:13.520Z,17.90
2022-11-27T02:08:43.060Z,18.20
2022-11-27T02:11:25.224Z,18.20
2022-11-27T02:14:09.189Z,18.20
2022-11-27T02:17:02.691Z,17.00
2022-11-27T02:19:55.506Z,16.70
2022-11-27T02:23:01.969Z,16.90
2022-11-27T02:26:04.228Z,16.80
2022-11-27T02:28:54.820Z,16.30
2022-11-27T02:31:50.113Z,16.40
2022-11-27T02:34:36.782Z,16.60
2022-11-27T02:37:27.027Z,18.50
2022-11-27T02:40:18.685Z,17.90
2022-11-27T02:43:01.479Z,18.50
2022-11-27T02:45:49.962Z,18.00
2022-11-27T02:48:31.175Z,17.90
2022-11-27T02:51:03.011Z,18.10
2022-11-27T02:53:48.792Z,16.80
2022-11-27T02:56:24.146Z,17.20
2022-11-27T02:59:00.430Z,16.70
2022-11-27T03:01:41.285Z,17.50
2022-11-27T03:04:19.406Z,16.50
2022-11-27T03:09:39.148Z,17.00
2022-11-27T03:12:11.512Z,18.30
2022-11-27T03:14:42.983Z,16.90
2022-11-27T03:17:35.726Z,16.20
2022-11-27T03:20:11.076Z,15.80
2022-11-27T03:22:42.851Z,16.40
2022-11-27T03:25:11.423Z,16.00
2022-11-27T03:28:02.511Z,16.20
2022-11-27T03:30:31.344Z,16.60
2022-11-27T03:33:01.875Z,15.90
2022-11-27T03:35:31.567Z,17.80
2022-11-27T03:38:00.194Z,17.40
2022-11-27T03:41:03.904Z,18.30
2022-11-27T03:43:38.919Z,16.80
2022-11-27T03:46:11.275Z,16.70
2022-11-27T03:48:58.729Z,15.10
2022-11-27T03:51:46.623Z,15.20
2022-11-27T03:54:50.222Z,16.10
2022-11-27T03:57:25.185Z,16.30
2022-11-27T03:59:57.032Z,16.60
2022-11-27T04:02:34.523Z,16.80
2022-11-27T04:05:02.949Z,16.70
2022-11-27T04:07:31.357Z,16.80
2022-11-27T04:09:59.617Z,18.30
2022-11-27T04:12:28.093Z,17.20
2022-11-27T04:14:56.400Z,16.40
2022-11-27T04:17:24.626Z,16.70
2022-11-27T04:19:53.073Z,16.00
2022-11-27T04:22:21.537Z,17.10
2022-11-27T04:24:50.555Z,18.10
2022-11-27T04:27:19.001Z,17.50
2022-11-27T04:29:47.243Z,17.50
2022-11-27T04:32:15.638Z,16.70
2022-11-27T04:34:43.912Z,16.80
2022-11-27T04:37:12.122Z,14.80
2022-11-27T04:39:40.385Z,17.00
2022-11-27T04:42:09.823Z,14.00
2022-11-27T04:44:38.414Z,14.40
2022-11-27T04:47:07.200Z,12.30
2022-11-27T04:49:35.683Z,14.90
2022-11-27T04:52:04.803Z,14.70
2022-11-27T04:54:33.036Z,15.20
2022-11-27T04:57:01.349Z,16.00
2022-11-27T04:59:29.979Z,16.00
2022-11-27T05:01:58.228Z,13.30
2022-11-27T05:04:26.629Z,15.00
2022-11-27T05:06:54.836Z,15.10
2022-11-27T05:09:23.401Z,16.00
2022-11-27T05:11:51.713Z,16.50
2022-11-27T05:14:22.046Z,16.60
2022-11-27T05:16:52.980Z,15.00
2022-11-27T05:19:23.519Z,16.00
2022-11-27T05:21:52.371Z,16.80
2022-11-27T05:24:23.043Z,17.80
2022-11-27T05:26:52.271Z,18.80
2022-11-27T05:29:21.471Z,39.90
2022-11-27T05:31:50.329Z,44.60
2022-11-27T05:34:19.547Z,45.70
2022-11-27T05:36:47.792Z,56.40
2022-11-27T05:39:16.439Z,67.10
2022-11-27T05:41:44.781Z,69.80
2022-11-27T05:44:16.368Z,68.10
2022-11-27T05:46:44.869Z,42.50
2022-11-27T05:49:15.400Z,21.20
2022-11-27T05:51:50.692Z,15.50
2022-11-27T05:54:20.139Z,14.90
2022-11-27T05:56:48.427Z,14.70
2022-11-27T05:59:16.790Z,14.80
2022-11-27T06:01:45.178Z,15.40
2022-11-27T06:04:13.495Z,23.40
2022-11-27T06:06:41.788Z,24.10
2022-11-27T06:09:13.271Z,22.10
2022-11-27T06:11:42.842Z,20.90
2022-11-27T06:14:11.445Z,21.70
2022-11-27T06:16:39.806Z,19.20
2022-11-27T06:19:09.369Z,24.10
2022-11-27T06:21:37.724Z,19.70
2022-11-27T06:24:06.285Z,29.40
2022-11-27T06:26:34.681Z,60.70
2022-11-27T06:29:03.742Z,69.60
2022-11-27T06:31:33.834Z,68.90
2022-11-27T06:34:04.190Z,57.60
2022-11-27T06:36:36.496Z,65.70
2022-11-27T06:39:06.541Z,59.50
2022-11-27T06:41:34.907Z,50.20
2022-11-27T06:44:04.107Z,37.50
2022-11-27T06:46:32.381Z,53.60
2022-11-27T06:49:01.116Z,62.90
2022-11-27T06:51:31.421Z,85.00
2022-11-27T06:54:01.445Z,102.40
2022-11-27T06:56:31.540Z,121.80
2022-11-27T06:59:01.758Z,120.50
2022-11-27T07:01:31.818Z,107.30
2022-11-27T07:04:00.595Z,65.70
2022-11-27T07:06:28.869Z,61.40
2022-11-27T07:08:57.455Z,37.90
2022-11-27T07:11:28.299Z,24.70
2022-11-27T07:13:59.560Z,19.40
2022-11-27T07:16:29.900Z,18.40
2022-11-27T07:19:01.592Z,18.00
2022-11-27T07:21:30.693Z,16.90
2022-11-27T07:23:59.023Z,16.70
2022-11-27T07:26:30.276Z,18.00
2022-11-27T07:28:58.840Z,19.90
2022-11-27T07:31:30.407Z,17.90
2022-11-27T07:33:58.966Z,19.00
2022-11-27T07:36:31.557Z,15.40
2022-11-27T07:38:59.920Z,17.80
2022-11-27T07:41:33.719Z,15.40
2022-11-27T07:44:03.438Z,17.50
2022-11-27T07:46:31.912Z,17.30
2022-11-27T07:49:00.928Z,18.50
2022-11-27T07:51:29.991Z,20.00
2022-11-27T07:54:00.175Z,17.90
2022-11-27T07:56:28.588Z,18.40
2022-11-27T07:58:58.259Z,18.20
2022-11-27T08:01:26.712Z,20.90
2022-11-27T08:03:55.037Z,20.10
2022-11-27T08:06:26.536Z,18.40
2022-11-27T08:08:56.914Z,17.60
2022-11-27T08:11:32.877Z,19.20
2022-11-27T08:14:07.278Z,17.90
2022-11-27T08:16:36.240Z,19.20
2022-11-27T08:19:04.598Z,18.40
2022-11-27T08:21:33.027Z,18.70
2022-11-27T08:24:01.341Z,19.30
2022-11-27T08:26:29.674Z,17.70
2022-11-27T08:28:58.480Z,17.80
2022-11-27T08:31:27.358Z,17.50
2022-11-27T08:33:56.514Z,17.60
2022-11-27T08:36:26.972Z,32.70
2022-11-27T08:38:55.819Z,30.60
2022-11-27T08:41:24.065Z,32.90
2022-11-27T08:43:52.360Z,31.70
2022-11-27T08:46:20.762Z,21.30
2022-11-27T08:48:49.036Z,19.10
2022-11-27T08:51:17.319Z,18.70
2022-11-27T08:53:45.958Z,20.80
2022-11-27T08:56:17.205Z,30.50
2022-11-27T08:58:46.790Z,33.00
2022-11-27T09:01:20.931Z,27.30
2022-11-27T09:03:50.020Z,23.70
2022-11-27T09:06:21.669Z,18.20
2022-11-27T09:08:51.253Z,28.30
2022-11-27T09:11:21.269Z,15.00
2022-11-27T09:13:49.527Z,13.00
2022-11-27T09:16:20.584Z,13.70
2022-11-27T09:18:51.907Z,14.00
2022-11-27T09:21:22.698Z,15.30
2022-11-27T09:23:55.660Z,17.50
2022-11-27T09:26:25.964Z,17.20
2022-11-27T09:28:55.784Z,17.10
2022-11-27T09:31:26.333Z,17.70
2022-11-27T09:33:54.667Z,17.50
2022-11-27T09:36:25.670Z,16.80
2022-11-27T09:38:54.995Z,18.00
2022-11-27T09:41:58.673Z,17.70
2022-11-27T09:44:45.699Z,17.90
2022-11-27T09:47:21.751Z,17.80
2022-11-27T09:50:06.587Z,18.30
2022-11-27T09:52:53.927Z,18.00
2022-11-27T09:55:39.106Z,19.40
2022-11-27T09:58:16.488Z,21.90
2022-11-27T10:00:46.832Z,24.90
2022-11-27T10:03:24.624Z,26.80
2022-11-27T10:06:05.204Z,33.50
2022-11-27T10:08:46.243Z,24.50
2022-11-27T10:11:29.884Z,25.40
2022-11-27T10:14:16.379Z,20.60
2022-11-27T10:16:54.322Z,20.10
2022-11-27T10:19:40.661Z,19.20
2022-11-27T10:22:29.156Z,20.10
2022-11-27T10:24:59.147Z,23.20
2022-11-27T10:27:48.006Z,23.90
2022-11-27T10:30:19.804Z,18.40
2022-11-27T10:32:57.485Z,17.90
2022-11-27T10:35:29.290Z,19.40
2022-11-27T10:38:07.181Z,18.20
2022-11-27T10:40:55.726Z,17.50
2022-11-27T10:43:25.867Z,18.30
2022-11-27T10:46:03.412Z,16.60
2022-11-27T10:48:33.538Z,16.70
2022-11-27T10:51:25.111Z,16.90
2022-11-27T10:54:01.057Z,16.80
2022-11-27T10:57:00.686Z,15.50
2022-11-27T10:59:35.093Z,16.50
2022-11-27T11:02:05.864Z,14.80
2022-11-27T11:04:38.389Z,14.90
2022-11-27T11:07:28.175Z,16.10
2022-11-27T11:09:56.625Z,16.30
2022-11-27T11:12:24.954Z,16.50
2022-11-27T11:15:01.928Z,16.40
2022-11-27T11:17:34.903Z,17.50
2022-11-27T11:20:22.454Z,16.20
2022-11-27T11:22:51.001Z,16.60
2022-11-27T11:25:21.987Z,19.10
2022-11-27T11:27:52.495Z,18.40
2022-11-27T11:30:28.674Z,18.10
2022-11-27T11:33:02.800Z,15.80
2022-11-27T11:35:36.128Z,15.30
2022-11-27T11:38:14.341Z,15.10
2022-11-27T11:40:46.799Z,16.50
2022-11-27T11:43:31.275Z,18.10
2022-11-27T11:46:18.235Z,17.00
2022-11-27T11:49:01.444Z,16.60
2022-11-27T11:51:46.236Z,17.40
2022-11-27T11:54:33.342Z,18.60
2022-11-27T11:57:07.239Z,18.40
2022-11-27T12:00:03.436Z,18.60
2022-11-27T12:02:53.286Z,18.90
2022-11-27T12:05:41.824Z,18.90
2022-11-27T12:08:42.679Z,18.80
2022-11-27T12:11:31.214Z,21.20
2022-11-27T12:14:12.716Z,23.70
2022-11-27T12:17:10.151Z,20.40
2022-11-27T12:20:07.363Z,24.80
2022-11-27T12:22:48.128Z,22.60
2022-11-27T12:25:16.440Z,23.30
2022-11-27T12:28:22.025Z,22.70
2022-11-27T12:30:53.209Z,23.30
2022-11-27T12:33:33.953Z,21.40
2022-11-27T12:36:37.228Z,24.10
2022-11-27T12:39:40.792Z,22.70
2022-11-27T12:42:22.223Z,21.80
2022-11-27T12:45:21.394Z,23.00
2022-11-27T12:47:58.934Z,25.20
2022-11-27T12:50:58.551Z,25.80
2022-11-27T12:53:39.036Z,24.60
2022-11-27T12:56:17.212Z,26.30
2022-11-27T12:59:17.411Z,29.00
2022-11-27T13:01:53.818Z,27.10
2022-11-27T13:04:42.805Z,23.80
2022-11-27T13:07:17.547Z,25.70
2022-11-27T13:10:03.085Z,28.30
2022-11-27T13:12:37.907Z,26.10
2022-11-27T13:15:26.647Z,24.60
2022-11-27T13:18:03.823Z,24.80
2022-11-27T13:20:38.794Z,22.10
2022-11-27T13:23:07.051Z,22.90
2022-11-27T13:25:45.029Z,24.70
2022-11-27T13:28:46.124Z,25.00
2022-11-27T13:31:23.185Z,27.10
2022-11-27T13:33:58.174Z,26.60
2022-11-27T13:36:38.665Z,27.20
2022-11-27T13:39:07.355Z,25.20
2022-11-27T13:41:41.431Z,24.00
2022-11-27T13:44:26.502Z,22.50
2022-11-27T13:46:59.471Z,22.50
2022-11-27T13:49:31.255Z,23.90
2022-11-27T13:52:13.853Z,36.50
2022-11-27T13:57:27.254Z,23.20
2022-11-27T13:59:58.473Z,23.80
2022-11-27T14:02:47.562Z,22.00
2022-11-27T14:05:21.487Z,21.80
2022-11-27T14:07:56.381Z,21.80
2022-11-27T14:10:29.752Z,22.30
2022-11-27T14:13:10.179Z,24.40
2022-11-27T14:15:39.594Z,24.50
2022-11-27T14:18:18.277Z,25.20
2022-11-27T14:20:52.815Z,22.10
2022-11-27T14:23:51.374Z,22.80
2022-11-27T14:26:23.132Z,21.90
2022-11-27T14:28:59.940Z,20.10
2022-11-27T14:31:30.495Z,19.90
2022-11-27T14:34:15.571Z,20.70
2022-11-27T14:36:46.396Z,19.40
2022-11-27T14:39:26.701Z,20.90
2022-11-27T14:42:03.179Z,24.80
2022-11-27T14:44:32.389Z,30.20
2022-11-27T14:47:04.094Z,31.20
2022-11-27T14:49:34.376Z,34.80
2022-11-27T14:52:07.662Z,30.40
2022-11-27T14:54:40.535Z,31.40
2022-11-27T14:57:24.740Z,33.10
2022-11-27T15:00:27.052Z,34.50
2022-11-27T15:02:55.592Z,31.40
2022-11-27T15:05:29.090Z,36.70
2022-11-27T15:07:59.039Z,34.50
2022-11-27T15:10:45.552Z,34.70
2022-11-27T15:13:36.963Z,35.60
2022-11-27T15:16:25.080Z,38.80
2022-11-27T15:18:59.836Z,40.40
2022-11-27T15:21:28.665Z,43.10
2022-11-27T15:23:57.224Z,49.00
2022-11-27T15:26:43.665Z,46.70
2022-11-27T15:29:28.115Z,53.80
2022-11-27T15:31:56.607Z,48.70
2022-11-27T15:34:30.851Z,46.70
2022-11-27T15:37:09.263Z,46.90
2022-11-27T15:39:54.938Z,43.70
2022-11-27T15:44:57.580Z,34.10
2022-11-27T15:47:40.387Z,48.00
2022-11-27T15:50:16.280Z,48.00
2022-11-27T15:52:44.635Z,44.00
2022-11-27T15:55:17.277Z,42.70
2022-11-27T15:57:46.798Z,42.20
2022-11-27T16:00:17.110Z,42.40
2022-11-27T16:02:45.388Z,45.40
2022-11-27T16:05:13.825Z,45.90
2022-11-27T16:07:42.212Z,45.80
2022-11-27T16:10:14.393Z,50.90
2022-11-27T16:12:42.812Z,49.90
2022-11-27T16:15:11.364Z,41.60
2022-11-27T16:17:39.663Z,40.40
2022-11-27T16:20:08.759Z,39.30
2022-11-27T16:22:37.176Z,39.70
2022-11-27T16:25:05.876Z,39.80
2022-11-27T16:27:34.652Z,40.10
2022-11-27T16:30:03.290Z,41.60
2022-11-27T16:32:31.652Z,40.70
2022-11-27T16:35:00.020Z,38.00
2022-11-27T16:37:29.586Z,41.80
2022-11-27T16:39:58.044Z,45.00
2022-11-27T16:42:26.520Z,47.00
2022-11-27T16:44:55.133Z,49.00
2022-11-27T16:47:23.998Z,49.00
2022-11-27T16:49:52.373Z,45.20
2022-11-27T16:52:20.659Z,47.40
2022-11-27T16:54:49.061Z,51.60
2022-11-27T16:57:18.268Z,52.50
2022-11-27T16:59:46.510Z,47.80
2022-11-27T17:02:15.466Z,46.40
2022-11-27T17:04:43.956Z,42.50
2022-11-27T17:07:12.292Z,37.70
2022-11-27T17:09:44.684Z,38.90
2022-11-27T17:12:14.348Z,45.00
2022-11-27T17:14:43.990Z,42.10
2022-11-27T17:17:12.374Z,46.20
2022-11-27T17:19:41.311Z,43.80
2022-11-27T17:22:10.413Z,44.50
2022-11-27T17:24:38.799Z,48.70
2022-11-27T17:27:08.825Z,49.30
2022-11-27T17:29:38.042Z,50.70
2022-11-27T17:32:09.863Z,50.00
2022-11-27T17:34:38.733Z,50.60
2022-11-27T17:37:07.607Z,49.80
2022-11-27T17:39:35.914Z,49.80
2022-11-27T17:42:06.664Z,51.10
2022-11-27T17:44:39.727Z,47.90
2022-11-27T17:47:08.190Z,42.40
2022-11-27T17:49:36.591Z,47.00
2022-11-27T17:52:07.296Z,51.00
2022-11-27T17:54:36.906Z,51.30
2022-11-27T17:57:06.737Z,47.00
2022-11-27T17:59:35.637Z,59.30
2022-11-27T18:02:04.416Z,55.90
2022-11-27T18:04:37.555Z,48.40
2022-11-27T18:07:06.428Z,49.90
2022-11-27T18:09:35.666Z,44.70
2022-11-27T18:12:06.848Z,42.50
2022-11-27T18:14:36.940Z,44.70
2022-11-27T18:17:07.247Z,44.60
2022-11-27T18:19:35.451Z,43.40
2022-11-27T18:22:09.174Z,38.40
2022-11-27T18:24:42.172Z,38.60
2022-11-27T18:27:10.930Z,42.30
2022-11-27T18:29:43.103Z,43.10
2022-11-27T18:32:13.413Z,44.70
2022-11-27T18:34:42.749Z,36.70
2022-11-27T18:37:13.477Z,49.40
2022-11-27T18:39:44.739Z,46.10
2022-11-27T18:42:13.685Z,46.30
2022-11-27T18:44:44.951Z,40.40
2022-11-27T18:47:16.059Z,38.30
2022-11-27T18:49:49.312Z,36.80
2022-11-27T18:52:17.662Z,34.60
2022-11-27T18:54:46.058Z,35.40
2022-11-27T18:57:14.746Z,36.60
2022-11-27T18:59:44.268Z,53.60
2022-11-27T19:02:13.657Z,97.50
2022-11-27T19:04:45.354Z,68.00
2022-11-27T19:07:16.250Z,67.60
2022-11-27T19:09:45.700Z,61.30
2022-11-27T19:12:14.121Z,53.00
2022-11-27T19:14:42.717Z,55.70
2022-11-27T19:17:11.716Z,55.60
2022-11-27T19:19:56.947Z,48.90
2022-11-27T19:22:26.582Z,49.00
2022-11-27T19:24:57.519Z,47.60
2022-11-27T19:27:26.190Z,48.10
2022-11-27T19:30:00.576Z,47.60
2022-11-27T19:32:30.889Z,46.10
2022-11-27T19:35:04.255Z,51.00
2022-11-27T19:37:37.087Z,49.50
2022-11-27T19:40:08.440Z,46.60
2022-11-27T19:45:11.228Z,49.10
2022-11-27T19:47:39.769Z,51.00
2022-11-27T19:50:16.685Z,50.30
2022-11-27T19:52:46.076Z,53.90
2022-11-27T19:55:17.235Z,50.80
2022-11-27T19:57:51.477Z,49.60
2022-11-27T20:00:25.843Z,46.50
2022-11-27T20:03:00.728Z,48.70
2022-11-27T20:05:29.696Z,49.10
2022-11-27T20:07:59.704Z,46.20
2022-11-27T20:10:51.472Z,52.50
2022-11-27T20:13:20.284Z,57.10
2022-11-27T20:15:48.882Z,45.60
2022-11-27T20:18:17.335Z,38.10
2022-11-27T20:20:47.349Z,38.20
2022-11-27T20:23:16.183Z,40.00
2022-11-27T20:25:44.567Z,38.30
2022-11-27T20:28:12.925Z,37.80
2022-11-27T20:30:44.989Z,40.60
2022-11-27T20:33:17.841Z,44.20
2022-11-27T20:35:46.106Z,44.80
2022-11-27T20:38:15.416Z,53.10
2022-11-27T20:40:46.048Z,49.90
2022-11-27T20:43:14.802Z,48.60
2022-11-27T20:45:43.445Z,50.80
2022-11-27T20:48:15.011Z,49.50
2022-11-27T20:50:49.820Z,52.50
2022-11-27T20:53:20.040Z,50.10
2022-11-27T20:55:49.432Z,51.10
2022-11-27T20:58:20.308Z,60.80
2022-11-27T21:00:49.846Z,71.70
2022-11-27T21:03:18.731Z,68.50
2022-11-27T21:05:48.445Z,63.20
2022-11-27T21:08:17.026Z,62.10
2022-11-27T21:10:50.714Z,66.30
2022-11-27T21:13:19.112Z,60.60
2022-11-27T21:15:48.499Z,54.80
2022-11-27T21:18:16.852Z,59.00
2022-11-27T21:20:45.263Z,48.20
2022-11-27T21:23:13.680Z,47.60
2022-11-27T21:25:43.968Z,46.40
2022-11-27T21:28:12.421Z,51.80
2022-11-27T21:30:40.793Z,51.20
2022-11-27T21:33:10.972Z,51.40
2022-11-27T21:35:40.526Z,53.40
2022-11-27T21:38:12.161Z,50.10
2022-11-27T21:40:40.577Z,50.20
2022-11-27T21:43:10.624Z,51.10
2022-11-27T21:45:39.455Z,50.50
2022-11-27T21:48:13.886Z,52.80
2022-11-27T21:50:43.229Z,52.60
2022-11-27T21:53:11.597Z,48.80
2022-11-27T21:55:42.228Z,47.40
2022-11-27T21:58:10.690Z,44.50
2022-11-27T22:00:39.339Z,45.50
2022-11-27T22:03:07.692Z,46.20
2022-11-27T22:05:36.036Z,43.90
2022-11-27T22:08:04.491Z,45.50
2022-11-27T22:10:32.977Z,40.00
2022-11-27T22:13:01.275Z,39.30
2022-11-27T22:15:30.743Z,40.10
2022-11-27T22:17:59.858Z,42.90
2022-11-27T22:20:30.841Z,40.80
2022-11-27T22:22:59.360Z,44.70
2022-11-27T22:25:28.398Z,45.70
2022-11-27T22:27:56.831Z,41.00
2022-11-27T22:30:26.368Z,42.10
2022-11-27T22:32:56.423Z,42.50
2022-11-27T22:35:25.784Z,42.00
2022-11-27T22:37:55.591Z,37.30
2022-11-27T22:40:24.484Z,38.10
2022-11-27T22:42:52.946Z,40.70
2022-11-27T22:45:21.147Z,39.40
2022-11-27T22:47:49.473Z,38.10
2022-11-27T22:50:17.996Z,39.40
2022-11-27T22:52:46.280Z,36.50
2022-11-27T22:55:14.764Z,37.00
2022-11-27T22:57:43.099Z,37.00
2022-11-27T23:00:11.817Z,35.20
2022-11-27T23:02:42.864Z,35.70
2022-11-27T23:05:12.067Z,36.30
2022-11-27T23:07:40.832Z,38.20
2022-11-27T23:10:10.108Z,37.30
2022-11-27T23:12:38.588Z,36.80
2022-11-27T23:15:07.144Z,34.50
2022-11-27T23:17:35.418Z,40.20
2022-11-27T23:20:06.083Z,36.20
2022-11-27T23:22:34.327Z,34.10
2022-11-27T23:25:02.637Z,36.80
2022-11-27T23:27:31.380Z,35.80
2022-11-27T23:29:59.739Z,36.70
2022-11-27T23:32:28.010Z,34.90
2022-11-27T23:34:56.355Z,34.30
2022-11-27T23:37:24.579Z,35.60
2022-11-27T23:39:52.850Z,35.90
2022-11-27T23:42:21.221Z,35.60
2022-11-27T23:44:49.469Z,36.90
2022-11-27T23:47:17.774Z,35.40
2022-11-27T23:49:46.116Z,34.80
2022-11-27T23:52:17.090Z,36.60
2022-11-27T23:54:45.931Z,36.60
2022-11-27T23:57:14.279Z,34.10
2022-11-27T23:59:42.611Z,35.70
